createdAt,value
2018-12-13T00:01:36.692Z,102785.09
2018-12-13T00:04:05.016Z,102781.23
2018-12-13T00:06:33.555Z,102780.78
2018-12-13T00:09:01.879Z,102778.16
2018-12-13T00:11:30.152Z,102772.98
2018-12-13T00:14:08.200Z,102777.30
2018-12-13T00:16:36.400Z,102772.09
2018-12-13T00:24:54.820Z,102772.55
2018-12-13T00:27:23.017Z,102770.80
2018-12-13T00:29:51.192Z,102763.85
2018-12-13T00:32:19.553Z,102770.38
2018-12-13T00:34:47.742Z,102768.19
2018-12-13T00:37:15.944Z,102766.91
2018-12-13T00:39:44.104Z,102766.89
2018-12-13T00:42:12.290Z,102766.02
2018-12-13T00:44:40.412Z,102772.53
2018-12-13T00:47:08.617Z,102772.11
2018-12-13T00:49:36.842Z,102772.97
2018-12-13T00:52:05.124Z,102767.31
2018-12-13T00:54:33.333Z,102767.33
2018-12-13T00:57:01.521Z,102766.88
2018-12-13T00:59:30.135Z,102771.23
2018-12-13T01:01:58.406Z,102768.63
2018-12-13T01:04:26.622Z,102772.55
2018-12-13T01:06:54.793Z,102766.03
2018-12-13T01:09:22.928Z,102774.72
2018-12-13T01:11:51.093Z,102773.86
2018-12-13T01:14:19.231Z,102774.30
2018-12-13T01:16:47.509Z,102776.47
2018-12-13T01:19:15.687Z,102774.69
2018-12-13T01:21:43.900Z,102773.86
2018-12-13T01:24:12.152Z,102772.97
2018-12-13T01:26:40.927Z,102775.58
2018-12-13T01:29:09.117Z,102778.64
2018-12-13T01:31:37.332Z,102775.59
2018-12-13T01:34:05.451Z,102772.11
2018-12-13T01:36:33.633Z,102762.08
2018-12-13T01:39:01.764Z,102756.84
2018-12-13T01:41:30.048Z,102759.00
2018-12-13T01:43:58.268Z,102756.41
2018-12-13T01:46:26.452Z,102754.27
2018-12-13T01:48:54.572Z,102748.59
2018-12-13T01:51:22.807Z,102748.60
2018-12-13T01:53:50.981Z,102749.48
2018-12-13T01:56:19.270Z,102750.36
2018-12-13T01:58:47.519Z,102747.73
2018-12-13T02:01:15.666Z,102750.34
2018-12-13T02:03:43.864Z,102749.91
2018-12-13T02:06:12.003Z,102747.73
2018-12-13T02:08:40.130Z,102743.80
2018-12-13T02:11:08.392Z,102743.81
2018-12-13T02:13:36.516Z,102744.23
2018-12-13T02:16:04.800Z,102745.09
2018-12-13T02:18:32.984Z,102749.83
2018-12-13T02:21:02.215Z,102750.69
2018-12-13T02:23:30.431Z,102741.58
2018-12-13T02:25:58.599Z,102739.81
2018-12-13T02:28:26.872Z,102748.92
2018-12-13T02:30:55.070Z,102745.01
2018-12-13T02:33:29.597Z,102746.72
2018-12-13T02:35:57.727Z,102748.82
2018-12-13T02:38:25.982Z,102747.91
2018-12-13T02:40:54.266Z,102750.99
2018-12-13T02:43:22.427Z,102746.61
2018-12-13T02:45:50.547Z,102749.14
2018-12-13T02:48:18.706Z,102746.57
2018-12-13T02:50:46.974Z,102751.31
2018-12-13T02:53:15.135Z,102745.66
2018-12-13T02:55:43.404Z,102745.47
2018-12-13T02:58:11.578Z,102742.49
2018-12-13T03:00:39.730Z,102736.94
2018-12-13T03:03:07.893Z,102734.50
2018-12-13T03:05:36.028Z,102734.56
2018-12-13T03:08:04.286Z,102730.66
2018-12-13T03:10:32.478Z,102725.55
2018-12-13T03:13:00.698Z,102725.06
2018-12-13T03:15:28.935Z,102719.00
2018-12-13T03:17:57.164Z,102714.02
2018-12-13T03:20:25.385Z,102712.69
2018-12-13T03:24:18.124Z,102717.86
2018-12-13T03:26:46.290Z,102711.35
2018-12-13T03:29:14.396Z,102714.81
2018-12-13T03:31:42.643Z,102714.18
2018-12-13T03:34:10.913Z,102712.06
2018-12-13T03:36:39.037Z,102713.25
2018-12-13T03:39:08.132Z,102708.05
2018-12-13T03:41:36.360Z,102705.64
2018-12-13T03:44:04.948Z,102702.78
2018-12-13T03:46:33.104Z,102705.73
2018-12-13T03:49:01.306Z,102703.33
2018-12-13T03:51:29.622Z,102705.02
2018-12-13T03:53:57.797Z,102700.25
2018-12-13T03:56:26.050Z,102704.69
2018-12-13T03:58:54.197Z,102697.09
2018-12-13T04:01:22.326Z,102692.81
2018-12-13T04:03:50.476Z,102694.27
2018-12-13T04:06:18.681Z,102695.96
2018-12-13T04:08:46.852Z,102693.50
2018-12-13T04:11:15.067Z,102697.83
2018-12-13T04:13:43.348Z,102689.23
2018-12-13T04:16:11.496Z,102687.50
2018-12-13T04:18:39.616Z,102689.22
2018-12-13T04:21:07.832Z,102682.39
2018-12-13T04:23:36.014Z,102686.00
2018-12-13T04:26:04.243Z,102691.65
2018-12-13T04:28:32.445Z,102682.97
2018-12-13T04:31:00.591Z,102679.94
2018-12-13T04:33:28.806Z,102678.38
2018-12-13T04:35:57.048Z,102684.75
2018-12-13T04:38:25.201Z,102680.92
2018-12-13T04:40:53.373Z,102676.27
2018-12-13T04:43:21.676Z,102683.18
2018-12-13T04:45:49.967Z,102682.38
2018-12-13T04:48:18.180Z,102681.11
2018-12-13T04:50:46.302Z,102684.61
2018-12-13T04:53:14.464Z,102680.22
2018-12-13T04:55:42.599Z,102678.70
2018-12-13T04:58:10.754Z,102675.17
2018-12-13T05:00:38.893Z,102677.39
2018-12-13T05:03:07.044Z,102670.27
2018-12-13T05:05:35.235Z,102670.12
2018-12-13T05:08:03.439Z,102671.69
2018-12-13T05:10:42.792Z,102661.80
2018-12-13T05:13:12.114Z,102666.95
2018-12-13T05:15:40.338Z,102667.52
2018-12-13T05:18:08.500Z,102668.67
2018-12-13T05:20:36.660Z,102663.98
2018-12-13T05:23:04.969Z,102669.66
2018-12-13T05:25:33.224Z,102666.72
2018-12-13T05:28:01.449Z,102662.16
2018-12-13T05:30:29.688Z,102653.78
2018-12-13T05:32:57.963Z,102648.36
2018-12-13T05:35:26.165Z,102648.45
2018-12-13T05:37:54.301Z,102648.09
2018-12-13T05:40:22.588Z,102641.36
2018-12-13T05:42:50.862Z,102644.83
2018-12-13T05:45:20.013Z,102643.20
2018-12-13T05:47:48.369Z,102644.50
2018-12-13T05:50:16.569Z,102638.59
2018-12-13T05:52:44.804Z,102639.38
2018-12-13T05:55:13.020Z,102638.50
2018-12-13T05:57:41.244Z,102633.40
2018-12-13T06:00:10.446Z,102632.91
2018-12-13T06:02:38.767Z,102628.19
2018-12-13T06:05:07.622Z,102629.05
2018-12-13T06:07:35.819Z,102623.03
2018-12-13T06:10:04.419Z,102625.67
2018-12-13T06:12:32.673Z,102625.63
2018-12-13T06:15:00.801Z,102617.47
2018-12-13T06:17:29.091Z,102620.11
2018-12-13T06:19:57.240Z,102629.22
2018-12-13T06:22:25.376Z,102630.99
2018-12-13T06:24:53.563Z,102628.42
2018-12-13T06:27:21.740Z,102630.19
2018-12-13T06:29:50.078Z,102628.45
2018-12-13T06:32:18.267Z,102634.55
2018-12-13T06:34:46.396Z,102641.09
2018-12-13T06:37:14.635Z,102642.40
2018-12-13T06:39:42.776Z,102647.58
2018-12-13T06:42:11.013Z,102651.95
2018-12-13T06:44:39.263Z,102649.31
2018-12-13T06:47:07.765Z,102652.81
2018-12-13T06:49:35.956Z,102653.71
2018-12-13T06:52:04.143Z,102652.84
2018-12-13T06:54:32.278Z,102646.76
2018-12-13T06:57:00.689Z,102644.59
2018-12-13T06:59:28.942Z,102651.99
2018-12-13T07:01:57.164Z,102652.86
2018-12-13T07:04:25.459Z,102652.41
2018-12-13T07:06:53.725Z,102643.33
2018-12-13T07:09:21.856Z,102638.98
2018-12-13T07:11:50.052Z,102650.25
2018-12-13T07:14:18.184Z,102643.30
2018-12-13T07:16:46.405Z,102640.70
2018-12-13T07:19:14.579Z,102639.84
2018-12-13T07:21:42.703Z,102634.22
2018-12-13T07:24:10.872Z,102637.28
2018-12-13T07:26:39.164Z,102632.91
2018-12-13T07:29:07.388Z,102632.03
2018-12-13T07:31:35.689Z,102633.75
2018-12-13T07:34:03.912Z,102636.37
2018-12-13T07:36:32.103Z,102632.91
2018-12-13T07:39:00.261Z,102642.48
2018-12-13T07:41:28.421Z,102644.19
2018-12-13T07:43:56.567Z,102644.21
2018-12-13T07:46:24.996Z,102637.27
2018-12-13T07:48:56.340Z,102634.22
2018-12-13T07:51:23.548Z,102632.05
2018-12-13T07:53:51.772Z,102632.03
2018-12-13T07:56:19.952Z,102630.27
2018-12-13T07:58:48.091Z,102632.88
2018-12-13T08:01:16.276Z,102632.45
2018-12-13T08:03:44.431Z,102640.66
2018-12-13T08:06:12.610Z,102637.20
2018-12-13T08:08:40.774Z,102630.27
2018-12-13T08:11:09.030Z,102624.62
2018-12-13T08:13:37.178Z,102630.73
2018-12-13T08:16:05.437Z,102637.64
2018-12-13T08:18:33.671Z,102634.60
2018-12-13T08:21:01.897Z,102633.75
2018-12-13T08:23:30.048Z,102631.58
2018-12-13T08:25:58.307Z,102627.70
2018-12-13T08:28:26.486Z,102638.95
2018-12-13T08:30:54.647Z,102632.02
2018-12-13T08:33:22.825Z,102632.92
2018-12-13T08:35:51.180Z,102632.48
2018-12-13T08:38:19.556Z,102628.56
2018-12-13T08:40:47.849Z,102634.22
2018-12-13T08:43:16.021Z,102633.34
2018-12-13T08:45:44.309Z,102635.95
2018-12-13T08:48:12.595Z,102644.22
2018-12-13T08:50:40.809Z,102642.48
2018-12-13T08:53:08.943Z,102646.86
2018-12-13T08:58:27.624Z,102645.55
2018-12-13T09:00:55.832Z,102648.14
2018-12-13T09:03:24.076Z,102642.08
2018-12-13T09:05:52.219Z,102649.02
2018-12-13T09:08:20.359Z,102643.80
2018-12-13T09:10:48.585Z,102635.55
2018-12-13T09:13:16.713Z,102632.92
2018-12-13T09:15:44.948Z,102630.34
2018-12-13T09:18:13.230Z,102633.82
2018-12-13T09:20:42.035Z,102627.72
2018-12-13T09:23:10.325Z,102624.23
2018-12-13T09:25:38.487Z,102625.99
2018-12-13T09:28:06.797Z,102625.11
2018-12-13T09:30:35.014Z,102627.73
2018-12-13T09:33:15.898Z,102630.77
2018-12-13T09:35:44.174Z,102631.62
2018-12-13T09:38:12.412Z,102617.30
2018-12-13T09:40:40.831Z,102622.07
2018-12-13T09:43:09.126Z,102621.20
2018-12-13T09:45:37.314Z,102618.16
2018-12-13T09:48:05.551Z,102617.28
2018-12-13T09:50:33.741Z,102621.18
2018-12-13T09:53:01.919Z,102619.02
2018-12-13T09:55:30.144Z,102613.35
2018-12-13T09:57:58.472Z,102619.39
2018-12-13T10:00:26.613Z,102609.87
2018-12-13T10:02:54.836Z,102607.69
2018-12-13T10:05:23.068Z,102608.53
2018-12-13T10:07:51.263Z,102607.64
2018-12-13T10:10:19.505Z,102601.97
2018-12-13T10:12:47.679Z,102595.39
2018-12-13T10:15:15.821Z,102596.66
2018-12-13T10:17:43.971Z,102592.31
2018-12-13T10:20:12.188Z,102589.23
2018-12-13T10:22:40.412Z,102592.37
2018-12-13T10:25:08.707Z,102586.72
2018-12-13T10:27:36.937Z,102587.09
2018-12-13T10:30:05.385Z,102588.40
2018-12-13T10:32:33.515Z,102591.88
2018-12-13T10:35:01.700Z,102588.78
2018-12-13T10:37:29.940Z,102584.55
2018-12-13T10:39:58.261Z,102585.81
2018-12-13T10:42:26.516Z,102586.27
2018-12-13T10:44:54.665Z,102580.62
2018-12-13T10:47:22.801Z,102583.23
2018-12-13T10:49:50.976Z,102587.56
2018-12-13T10:52:20.118Z,102586.73
2018-12-13T10:54:48.595Z,102583.22
2018-12-13T10:57:16.741Z,102586.66
2018-12-13T10:59:44.978Z,102584.97
2018-12-13T11:02:18.471Z,102585.80
2018-12-13T11:04:46.644Z,102583.63
2018-12-13T11:07:14.811Z,102586.63
2018-12-13T11:09:43.056Z,102576.95
2018-12-13T11:12:11.230Z,102575.20
2018-12-13T11:14:39.558Z,102570.88
2018-12-13T11:17:07.714Z,102572.09
2018-12-13T11:19:35.893Z,102571.73
2018-12-13T11:22:04.138Z,102566.08
2018-12-13T11:24:32.268Z,102564.30
2018-12-13T11:27:11.730Z,102563.05
2018-12-13T11:29:51.017Z,102561.23
2018-12-13T11:32:19.187Z,102558.25
2018-12-13T11:34:47.394Z,102562.69
2018-12-13T11:37:15.516Z,102562.41
2018-12-13T11:39:43.741Z,102566.39
2018-12-13T11:42:11.900Z,102567.55
2018-12-13T11:44:40.048Z,102562.27
2018-12-13T11:47:08.228Z,102558.48
2018-12-13T11:49:36.369Z,102555.92
2018-12-13T11:52:04.689Z,102551.61
2018-12-13T11:54:42.164Z,102556.34
2018-12-13T11:57:10.510Z,102553.31
2018-12-13T11:59:38.760Z,102547.23
2018-12-13T12:02:07.141Z,102545.05
2018-12-13T12:04:35.294Z,102548.13
2018-12-13T12:07:03.580Z,102542.91
2018-12-13T12:09:31.749Z,102542.97
2018-12-13T12:12:00.080Z,102539.92
2018-12-13T12:14:28.493Z,102542.97
2018-12-13T12:16:56.715Z,102542.54
2018-12-13T12:19:24.859Z,102541.22
2018-12-13T12:21:53.088Z,102537.80
2018-12-13T12:24:21.223Z,102541.22
2018-12-13T12:26:49.416Z,102535.53
2018-12-13T12:29:17.682Z,102536.03
2018-12-13T12:31:45.895Z,102534.67
2018-12-13T12:34:14.088Z,102537.30
2018-12-13T12:36:42.279Z,102544.66
2018-12-13T12:39:10.441Z,102530.75
2018-12-13T12:41:38.678Z,102531.75
2018-12-13T12:44:06.940Z,102529.50
2018-12-13T12:46:35.191Z,102529.52
2018-12-13T12:49:03.421Z,102526.41
2018-12-13T12:51:31.677Z,102527.25
2018-12-13T12:53:59.948Z,102522.03
2018-12-13T12:56:28.160Z,102525.06
2018-12-13T12:58:56.519Z,102524.22
2018-12-13T13:01:24.856Z,102513.77
2018-12-13T13:03:53.200Z,102519.02
2018-12-13T13:06:21.348Z,102519.47
2018-12-13T13:08:56.216Z,102518.63
2018-12-13T13:11:24.401Z,102517.72
2018-12-13T13:13:52.529Z,102514.33
2018-12-13T13:16:20.685Z,102519.94
2018-12-13T13:18:48.954Z,102516.93
2018-12-13T13:21:17.162Z,102515.14
2018-12-13T13:23:45.393Z,102515.09
2018-12-13T13:26:13.595Z,102516.77
2018-12-13T13:28:41.721Z,102512.55
2018-12-13T13:31:09.879Z,102514.31
2018-12-13T13:33:38.041Z,102505.99
2018-12-13T13:36:06.262Z,102503.80
2018-12-13T13:38:34.470Z,102498.17
2018-12-13T13:41:02.808Z,102501.13
2018-12-13T13:43:31.117Z,102489.43
2018-12-13T13:45:59.285Z,102492.50
2018-12-13T13:48:27.440Z,102492.05
2018-12-13T13:50:55.731Z,102484.98
2018-12-13T13:53:24.022Z,102483.72
2018-12-13T13:55:52.211Z,102486.34
2018-12-13T13:58:20.357Z,102484.17
2018-12-13T14:00:48.592Z,102482.05
2018-12-13T14:03:16.880Z,102487.63
2018-12-13T14:05:44.995Z,102484.17
2018-12-13T14:08:13.875Z,102478.08
2018-12-13T14:10:42.028Z,102476.77
2018-12-13T14:13:10.184Z,102476.78
2018-12-13T14:15:38.428Z,102478.08
2018-12-13T14:18:06.783Z,102468.48
2018-12-13T14:20:34.932Z,102473.30
2018-12-13T14:23:03.177Z,102469.78
2018-12-13T14:25:31.311Z,102467.19
2018-12-13T14:27:59.445Z,102462.81
2018-12-13T14:30:28.020Z,102460.62
2018-12-13T14:32:56.271Z,102464.19
2018-12-13T14:35:24.505Z,102460.69
2018-12-13T14:37:53.524Z,102459.00
2018-12-13T14:40:21.736Z,102465.42
2018-12-13T14:42:50.026Z,102468.92
2018-12-13T14:45:18.445Z,102460.64
2018-12-13T14:47:46.729Z,102476.33
2018-12-13T14:50:14.981Z,102478.48
2018-12-13T14:52:43.291Z,102480.29
2018-12-13T14:55:11.585Z,102483.75
2018-12-13T14:57:39.791Z,102487.20
2018-12-13T15:00:10.769Z,102479.86
2018-12-13T15:02:38.945Z,102485.47
2018-12-13T15:05:07.444Z,102484.17
2018-12-13T15:07:35.801Z,102485.13
2018-12-13T15:10:05.083Z,102491.16
2018-12-13T15:12:33.240Z,102487.23
2018-12-13T15:15:01.424Z,102481.59
2018-12-13T15:17:29.624Z,102484.66
2018-12-13T15:19:57.831Z,102487.65
2018-12-13T15:22:26.024Z,102487.21
2018-12-13T15:24:54.223Z,102486.33
2018-12-13T15:27:22.397Z,102481.10
2018-12-13T15:29:50.761Z,102482.38
2018-12-13T15:32:19.200Z,102489.38
2018-12-13T15:34:47.382Z,102486.34
2018-12-13T15:37:15.569Z,102490.70
2018-12-13T15:39:43.700Z,102496.34
2018-12-13T15:42:11.932Z,102495.86
2018-12-13T15:44:40.250Z,102499.85
2018-12-13T15:47:08.584Z,102500.24
2018-12-13T15:49:36.998Z,102499.39
2018-12-13T15:52:05.248Z,102494.13
2018-12-13T15:54:33.504Z,102495.90
2018-12-13T15:57:01.689Z,102495.47
2018-12-13T15:59:29.932Z,102484.12
2018-12-13T16:01:59.122Z,102488.04
2018-12-13T16:04:27.321Z,102492.33
2018-12-13T16:06:55.493Z,102484.53
2018-12-13T16:09:23.690Z,102490.64
2018-12-13T16:11:51.855Z,102481.89
2018-12-13T16:14:20.118Z,102478.84
2018-12-13T16:16:48.329Z,102482.80
2018-12-13T16:19:16.560Z,102481.10
2018-12-13T16:21:44.895Z,102479.80
2018-12-13T16:24:13.448Z,102474.13
2018-12-13T16:26:41.706Z,102477.57
2018-12-13T16:29:09.881Z,102474.56
2018-12-13T16:31:38.127Z,102469.38
2018-12-13T16:34:06.362Z,102471.46
2018-12-13T16:36:34.679Z,102461.47
2018-12-13T16:39:04.093Z,102470.65
2018-12-13T16:41:32.393Z,102466.31
2018-12-13T16:44:00.741Z,102465.44
2018-12-13T16:46:28.961Z,102468.00
2018-12-13T16:48:57.218Z,102468.92
2018-12-13T16:51:25.537Z,102472.41
2018-12-13T16:53:53.878Z,102475.02
2018-12-13T16:56:22.057Z,102472.45
2018-12-13T16:58:50.203Z,102475.96
2018-12-13T17:01:18.549Z,102472.01
2018-12-13T17:03:46.802Z,102475.91
2018-12-13T17:06:15.042Z,102476.33
2018-12-13T17:08:43.412Z,102474.16
2018-12-13T17:11:11.752Z,102481.13
2018-12-13T17:13:40.295Z,102481.59
2018-12-13T17:16:15.261Z,102491.66
2018-12-13T17:18:58.730Z,102487.27
2018-12-13T17:21:28.080Z,102487.28
2018-12-13T17:23:56.220Z,102485.50
2018-12-13T17:26:24.588Z,102481.59
2018-12-13T17:28:52.767Z,102486.77
2018-12-13T17:31:21.016Z,102479.44
2018-12-13T17:33:51.233Z,102486.46
2018-12-13T17:36:20.001Z,102489.88
2018-12-13T17:38:48.209Z,102489.01
2018-12-13T17:41:16.956Z,102486.42
2018-12-13T17:43:45.761Z,102492.50
2018-12-13T17:46:16.187Z,102494.66
2018-12-13T17:48:48.225Z,102505.16
2018-12-13T17:51:16.615Z,102502.98
2018-12-13T17:53:44.933Z,102501.25
2018-12-13T17:56:13.170Z,102500.34
2018-12-13T17:58:41.527Z,102501.64
2018-12-13T18:01:09.743Z,102498.61
2018-12-13T18:03:37.867Z,102494.39
2018-12-13T18:06:06.633Z,102498.70
2018-12-13T18:08:34.874Z,102492.58
2018-12-13T18:11:03.077Z,102496.42
2018-12-13T18:13:31.417Z,102498.69
2018-12-13T18:15:59.696Z,102506.55
2018-12-13T18:18:27.983Z,102503.95
2018-12-13T18:20:56.213Z,102509.11
2018-12-13T18:23:24.785Z,102509.13
2018-12-13T18:25:52.953Z,102516.08
2018-12-13T18:28:21.141Z,102508.69
2018-12-13T18:30:49.290Z,102515.66
2018-12-13T18:33:17.534Z,102515.62
2018-12-13T18:35:45.782Z,102510.02
2018-12-13T18:38:13.925Z,102509.15
2018-12-13T18:40:48.739Z,102510.84
2018-12-13T18:43:16.994Z,102513.44
2018-12-13T18:45:46.111Z,102520.41
2018-12-13T18:48:14.276Z,102523.08
2018-12-13T18:50:42.471Z,102526.55
2018-12-13T18:53:10.792Z,102530.92
2018-12-13T18:55:38.955Z,102530.91
2018-12-13T18:58:07.224Z,102528.37
2018-12-13T19:03:15.464Z,102516.95
2018-12-13T19:05:43.718Z,102520.93
2018-12-13T19:08:11.960Z,102519.59
2018-12-13T19:10:41.980Z,102523.52
2018-12-13T19:13:10.440Z,102523.06
2018-12-13T19:15:38.748Z,102520.08
2018-12-13T19:18:07.191Z,102519.58
2018-12-13T19:20:52.935Z,102522.19
2018-12-13T19:23:21.300Z,102519.56
2018-12-13T19:25:49.489Z,102524.84
2018-12-13T19:28:17.716Z,102521.34
2018-12-13T19:30:45.921Z,102526.62
2018-12-13T19:33:14.078Z,102525.24
2018-12-13T19:35:42.260Z,102524.42
2018-12-13T19:38:10.559Z,102534.41
2018-12-13T19:40:38.720Z,102536.14
2018-12-13T19:43:06.999Z,102525.24
2018-12-13T19:45:35.288Z,102527.48
2018-12-13T19:48:03.435Z,102532.30
2018-12-13T19:50:31.600Z,102528.72
2018-12-13T19:52:59.799Z,102532.25
2018-12-13T19:55:28.147Z,102529.21
2018-12-13T19:57:56.315Z,102525.30
2018-12-13T20:00:24.445Z,102523.97
2018-12-13T20:02:52.740Z,102530.08
2018-12-13T20:05:21.909Z,102529.62
2018-12-13T20:07:50.169Z,102541.89
2018-12-13T20:10:18.496Z,102537.97
2018-12-13T20:12:46.665Z,102544.05
2018-12-13T20:15:14.855Z,102538.84
2018-12-13T20:17:43.037Z,102542.78
2018-12-13T20:20:11.200Z,102545.37
2018-12-13T20:22:39.469Z,102537.97
2018-12-13T20:25:08.748Z,102548.02
2018-12-13T20:27:36.894Z,102541.45
2018-12-13T20:30:06.652Z,102548.02
2018-12-13T20:32:34.953Z,102548.86
2018-12-13T20:35:04.605Z,102545.83
2018-12-13T20:37:33.081Z,102544.95
2018-12-13T20:40:01.264Z,102543.62
2018-12-13T20:42:29.653Z,102550.16
2018-12-13T20:44:57.806Z,102551.87
2018-12-13T20:47:26.019Z,102544.07
2018-12-13T20:49:54.256Z,102550.22
2018-12-13T20:52:22.495Z,102544.53
2018-12-13T20:54:50.649Z,102538.02
2018-12-13T20:57:18.809Z,102541.08
2018-12-13T20:59:46.952Z,102547.14
2018-12-13T21:02:15.188Z,102547.59
2018-12-13T21:04:43.356Z,102558.09
2018-12-13T21:07:16.998Z,102561.52
2018-12-13T21:09:45.172Z,102558.50
2018-12-13T21:12:13.341Z,102558.92
2018-12-13T21:14:41.492Z,102565.05
2018-12-13T21:17:09.805Z,102557.16
2018-12-13T21:19:37.987Z,102568.91
2018-12-13T21:22:06.230Z,102558.52
2018-12-13T21:24:34.572Z,102558.51
2018-12-13T21:27:03.308Z,102565.02
2018-12-13T21:29:31.620Z,102559.35
2018-12-13T21:31:59.865Z,102558.46
2018-12-13T21:34:28.053Z,102562.85
2018-12-13T21:36:56.296Z,102562.40
2018-12-13T21:39:30.677Z,102553.25
2018-12-13T21:41:59.804Z,102563.27
2018-12-13T21:44:28.066Z,102571.53
2018-12-13T21:46:56.211Z,102564.55
2018-12-13T21:49:24.706Z,102569.83
2018-12-13T21:51:52.954Z,102558.05
2018-12-13T21:54:21.254Z,102559.77
2018-12-13T21:56:49.773Z,102564.16
2018-12-13T21:59:17.944Z,102558.94
2018-12-13T22:01:46.125Z,102563.73
2018-12-13T22:04:14.368Z,102557.18
2018-12-13T22:06:42.567Z,102557.61
2018-12-13T22:09:10.890Z,102553.28
2018-12-13T22:11:39.208Z,102558.07
2018-12-13T22:14:07.396Z,102551.14
2018-12-13T22:16:35.617Z,102559.86
2018-12-13T22:19:03.915Z,102560.73
2018-12-13T22:21:32.108Z,102555.08
2018-12-13T22:24:00.285Z,102563.34
2018-12-13T22:26:28.543Z,102553.73
2018-12-13T22:28:56.720Z,102557.24
2018-12-13T22:31:24.882Z,102561.14
2018-12-13T22:33:53.041Z,102562.91
2018-12-13T22:36:21.306Z,102555.94
2018-12-13T22:38:49.554Z,102553.34
2018-12-13T22:41:17.796Z,102560.73
2018-12-13T22:43:46.205Z,102555.07
2018-12-13T22:46:14.356Z,102558.13
2018-12-13T22:48:42.691Z,102562.48
2018-12-13T22:51:10.923Z,102563.31
2018-12-13T22:53:39.167Z,102563.78
2018-12-13T22:56:07.361Z,102560.66
2018-12-13T22:58:35.529Z,102568.11
2018-12-13T23:01:03.836Z,102562.48
2018-12-13T23:03:31.990Z,102556.30
2018-12-13T23:06:00.220Z,102558.98
2018-12-13T23:08:28.530Z,102555.10
2018-12-13T23:10:57.020Z,102545.95
2018-12-13T23:13:25.278Z,102545.45
2018-12-13T23:15:53.513Z,102557.26
2018-12-13T23:18:21.660Z,102557.23
2018-12-13T23:20:49.816Z,102558.53
2018-12-13T23:23:18.048Z,102552.90
2018-12-13T23:25:46.318Z,102556.38
2018-12-13T23:28:14.464Z,102559.44
2018-12-13T23:30:42.628Z,102564.23
2018-12-13T23:33:10.795Z,102559.41
2018-12-13T23:35:38.980Z,102554.64
2018-12-13T23:38:07.286Z,102560.30
2018-12-13T23:40:35.524Z,102547.25
2018-12-13T23:43:03.762Z,102554.65
2018-12-13T23:45:31.967Z,102554.22
2018-12-13T23:48:00.102Z,102555.52
2018-12-13T23:50:28.286Z,102552.04
2018-12-13T23:52:56.525Z,102560.72
2018-12-13T23:55:24.807Z,102554.26
2018-12-13T23:57:53.207Z,102549.45
